Time;durP1;ratioP1;P1;durP2;ratioP2;P2;SDS_P1;SDS_P2;PMS_P1;PMS_P2;Temp;Humidity;BMP_temperature;BMP_pressure;BME280_temperature;BME280_humidity;BME280_pressure;Samples;Min_cycle;Max_cycle;Signal;HPM_P1;HPM_P2
2023/02/14 00:02:15;;;;;;;;;75.25;59.00;;;;;5.74;100.00;102924.78;5096347;27;45364;-76
2023/02/14 00:04:43;;;;;;;;;75.25;61.25;;;;;5.72;100.00;102917.88;5099935;27;45349;-76
2023/02/14 00:07:09;;;;;;;;;74.00;59.25;;;;;5.67;100.00;102924.28;5101041;27;45428;-77
2023/02/14 00:09:35;;;;;;;;;77.75;61.75;;;;;5.67;100.00;102926.94;5099556;27;47001;-76
2023/02/14 00:12:03;;;;;;;;;82.25;63.25;;;;;5.56;100.00;102905.56;5100944;27;45325;-76
2023/02/14 00:17:12;;;;;;;;;83.50;65.25;;;;;5.59;100.00;102923.03;5096260;27;45276;-76
2023/02/14 00:19:38;;;;;;;;;84.25;67.50;;;;;5.55;100.00;102917.06;5100622;27;45319;-76
2023/02/14 00:22:04;;;;;;;;;85.25;64.25;;;;;5.58;100.00;102916.88;5100593;27;45337;-77
2023/02/14 00:24:29;;;;;;;;;87.25;69.25;;;;;5.54;100.00;102925.91;5090150;27;45365;-76
2023/02/14 00:26:55;;;;;;;;;89.25;72.75;;;;;5.51;100.00;102918.19;5096471;27;45349;-77
2023/02/14 00:29:23;;;;;;;;;85.00;67.00;;;;;5.49;100.00;102917.41;5100499;27;45408;-77
2023/02/14 00:31:48;;;;;;;;;82.25;65.00;;;;;5.46;100.00;102907.88;5100312;27;45321;-76
2023/02/14 00:34:18;;;;;;;;;84.00;69.00;;;;;5.48;100.00;102913.06;5099412;27;45917;-76
2023/02/14 00:36:44;;;;;;;;;87.00;67.75;;;;;5.43;100.00;102913.34;5100387;27;45346;-76
2023/02/14 00:39:12;;;;;;;;;86.25;64.50;;;;;5.39;100.00;102904.72;5100506;27;45559;-77
2023/02/14 00:41:38;;;;;;;;;85.25;71.50;;;;;5.41;100.00;102910.78;5100215;27;45471;-77
2023/02/14 00:44:05;;;;;;;;;87.75;71.75;;;;;5.40;100.00;102903.81;5098948;27;45368;-76
2023/02/14 00:46:31;;;;;;;;;85.75;68.25;;;;;5.38;100.00;102896.91;5098925;27;46323;-77
2023/02/14 00:48:56;;;;;;;;;76.50;60.25;;;;;5.34;100.00;102901.50;5099014;27;48371;-77
2023/02/14 00:51:22;;;;;;;;;87.50;67.25;;;;;5.34;100.00;102895.38;5098052;27;45459;-77
2023/02/14 00:53:51;;;;;;;;;81.75;66.00;;;;;5.33;100.00;102899.81;5089162;27;45449;-77
2023/02/14 00:56:18;;;;;;;;;90.25;74.75;;;;;5.35;100.00;102897.06;5098132;27;46309;-76
2023/02/14 00:58:44;;;;;;;;;76.75;61.50;;;;;5.33;100.00;102891.91;5100148;27;45595;-76
2023/02/14 01:01:10;;;;;;;;;87.25;72.50;;;;;5.32;100.00;102892.81;5099666;27;45310;-76
2023/02/14 01:03:36;;;;;;;;;78.25;61.25;;;;;5.30;100.00;102892.09;5099075;27;45312;-76
2023/02/14 01:06:01;;;;;;;;;89.25;75.50;;;;;5.29;100.00;102899.13;5102648;27;45312;-76
2023/02/14 01:08:27;;;;;;;;;88.25;71.75;;;;;5.26;100.00;102899.31;5110160;27;45373;-77
2023/02/14 01:10:52;;;;;;;;;91.25;72.25;;;;;5.26;100.00;102903.72;5099510;27;45533;-77
2023/02/14 01:13:19;;;;;;;;;90.00;75.75;;;;;5.17;100.00;102890.13;5100089;27;45359;-76
2023/02/14 01:15:48;;;;;;;;;89.25;75.75;;;;;5.14;100.00;102892.94;5099248;27;45548;-76
2023/02/14 01:18:14;;;;;;;;;86.00;71.75;;;;;5.14;100.00;102887.66;5100108;27;45325;-76
2023/02/14 01:20:40;;;;;;;;;82.50;66.50;;;;;5.11;100.00;102893.09;5099523;27;45400;-76
2023/02/14 01:23:08;;;;;;;;;78.75;63.50;;;;;5.07;100.00;102886.31;5098596;27;45455;-76
2023/02/14 01:25:36;;;;;;;;;82.50;64.50;;;;;5.05;100.00;102891.66;5099170;27;45476;-76
2023/02/14 01:28:02;;;;;;;;;81.00;66.50;;;;;4.98;100.00;102879.75;5099815;27;45271;-77
2023/02/14 01:30:27;;;;;;;;;78.25;62.75;;;;;4.96;100.00;102888.66;5099592;27;45322;-77
2023/02/14 01:32:53;;;;;;;;;78.00;62.50;;;;;4.92;100.00;102888.84;5098245;27;45485;-77
2023/02/14 01:35:18;;;;;;;;;83.00;65.00;;;;;4.93;100.00;102893.19;5099450;27;45443;-77
2023/02/14 01:37:43;;;;;;;;;82.50;64.75;;;;;4.92;100.00;102893.25;5094964;27;46969;-76
2023/02/14 01:40:10;;;;;;;;;89.75;72.50;;;;;4.89;100.00;102899.56;5096739;27;45281;-77
2023/02/14 01:42:36;;;;;;;;;85.25;66.75;;;;;4.92;100.00;102906.44;5089272;27;45423;-76
2023/02/14 01:45:08;;;;;;;;;84.25;66.25;;;;;4.91;100.00;102902.13;5095383;27;46019;-76
2023/02/14 01:47:40;;;;;;;;;88.25;69.50;;;;;4.87;100.00;102897.91;5097957;27;47349;-77
2023/02/14 01:50:13;;;;;;;;;88.00;69.25;;;;;4.84;100.00;102896.31;5097799;27;45965;-76
2023/02/14 01:52:47;;;;;;;;;84.00;68.00;;;;;4.80;100.00;102897.41;5099732;27;45258;-76
2023/02/14 01:55:20;;;;;;;;;87.50;69.75;;;;;4.78;100.00;102900.13;5086718;27;45304;-76
2023/02/14 01:58:08;;;;;;;;;88.00;67.25;;;;;4.76;100.00;102906.41;5098948;27;45318;-76
2023/02/14 02:03:20;;;;;;;;;91.25;70.25;;;;;4.69;100.00;102897.97;5087149;27;45360;-76
2023/02/14 02:05:57;;;;;;;;;89.25;71.25;;;;;4.65;100.00;102892.03;5100032;27;45344;-76
2023/02/14 02:08:22;;;;;;;;;84.75;67.25;;;;;4.66;100.00;102893.72;5110052;27;46380;-76
2023/02/14 02:10:55;;;;;;;;;90.50;73.25;;;;;4.64;100.00;102892.13;5085448;27;45314;-76
2023/02/14 02:13:21;;;;;;;;;85.00;68.00;;;;;4.61;100.00;102889.66;5099315;27;45365;-76
2023/02/14 02:15:59;;;;;;;;;76.75;61.75;;;;;4.51;100.00;102892.75;5094041;27;46184;-76
2023/02/14 02:18:30;;;;;;;;;82.00;65.25;;;;;4.52;100.00;102894.47;5089974;27;48453;-76
2023/02/14 02:21:04;;;;;;;;;80.75;62.50;;;;;4.51;100.00;102892.75;5102293;27;45361;-76
2023/02/14 02:24:08;;;;;;;;;80.00;62.25;;;;;4.48;100.00;102878.91;5102344;27;45217;-76
2023/02/14 02:26:46;;;;;;;;;79.50;61.75;;;;;4.45;100.00;102884.31;5059699;28;45457;-77
2023/02/14 02:29:23;;;;;;;;;77.75;62.75;;;;;4.44;100.00;102888.75;5056106;28;47603;-76
2023/02/14 02:32:30;;;;;;;;;76.75;60.00;;;;;4.42;100.00;102891.47;5071031;27;45537;-76
2023/02/14 02:35:19;;;;;;;;;80.50;65.25;;;;;4.41;100.00;102895.03;5100751;27;45264;-77
2023/02/14 02:37:59;;;;;;;;;84.25;62.50;;;;;4.37;100.00;102888.22;5102223;27;45321;-77
2023/02/14 02:41:01;;;;;;;;;76.50;60.25;;;;;4.37;100.00;102890.00;5101938;27;46172;-76
2023/02/14 02:43:53;;;;;;;;;78.00;61.50;;;;;4.37;100.00;102890.84;5102084;27;45291;-76
2023/02/14 02:55:25;;;;;;;;;79.50;61.00;;;;;4.29;100.00;102888.59;5089329;27;45358;-76
2023/02/14 02:57:53;;;;;;;;;78.25;60.25;;;;;4.27;100.00;102879.94;5102198;27;45680;-76
2023/02/14 03:00:23;;;;;;;;;75.75;58.50;;;;;4.29;100.00;102888.59;5100954;27;46476;-76
2023/02/14 03:05:38;;;;;;;;;82.25;65.00;;;;;4.21;100.00;102880.25;5101936;27;45381;-77
2023/02/14 03:08:04;;;;;;;;;81.00;64.00;;;;;4.20;100.00;102877.72;5108437;27;45484;-77
2023/02/14 03:10:34;;;;;;;;;78.75;61.25;;;;;4.17;100.00;102871.66;5095360;27;45348;-76
2023/02/14 03:13:35;;;;;;;;;72.75;59.75;;;;;4.19;100.00;102876.84;5102051;27;45298;-76
2023/02/14 03:16:31;;;;;;;;;72.25;59.00;;;;;4.17;100.00;102884.81;5101290;27;45326;-76
2023/02/14 03:19:08;;;;;;;;;77.50;61.50;;;;;4.14;100.00;102874.47;5101919;27;45402;-77
2023/02/14 03:21:53;;;;;;;;;79.25;60.75;;;;;4.11;100.00;102879.03;5099858;27;46558;-76
2023/02/14 03:24:25;;;;;;;;;77.00;61.75;;;;;4.09;100.00;102883.53;5100351;27;47983;-76
2023/02/14 03:26:57;;;;;;;;;78.25;61.75;;;;;4.12;100.00;102883.38;5101619;27;45360;-77
2023/02/14 03:29:31;;;;;;;;;73.00;58.00;;;;;4.12;100.00;102878.97;5101489;27;45492;-76
2023/02/14 03:32:34;;;;;;;;;76.00;60.75;;;;;4.08;100.00;102876.56;5099893;27;46398;-76
2023/02/14 03:35:23;;;;;;;;;73.50;59.75;;;;;4.04;100.00;102867.97;5101151;27;45349;-76
2023/02/14 03:37:58;;;;;;;;;75.50;60.75;;;;;4.04;100.00;102867.97;5099788;27;45344;-76
2023/02/14 03:40:32;;;;;;;;;75.50;59.50;;;;;4.01;100.00;102870.78;5101143;27;45364;-76
2023/02/14 03:43:13;;;;;;;;;76.75;61.50;;;;;3.99;100.00;102867.34;5101509;27;45313;-76
2023/02/14 03:45:43;;;;;;;;;78.75;62.50;;;;;4.01;100.00;102868.16;5089394;27;46491;-76
2023/02/14 03:48:12;;;;;;;;;76.00;61.25;;;;;4.00;100.00;102861.16;5101267;27;45475;-76
2023/02/14 03:50:41;;;;;;;;;77.25;59.25;;;;;3.94;100.00;102857.06;5101561;27;45263;-76
2023/02/14 03:53:10;;;;;;;;;81.25;63.00;;;;;3.91;100.00;102851.97;5101057;27;45476;-76
2023/02/14 03:55:43;;;;;;;;;73.25;60.00;;;;;3.93;100.00;102860.63;5101170;27;45310;-76
2023/02/14 03:58:15;;;;;;;;;72.00;58.00;;;;;3.92;100.00;102867.66;5099685;27;45381;-76
2023/02/14 04:00:45;;;;;;;;;78.50;59.75;;;;;3.88;100.00;102860.00;5096645;27;45285;-76
2023/02/14 04:03:14;;;;;;;;;77.00;61.50;;;;;3.89;100.00;102867.81;5099059;27;47128;-76
2023/02/14 04:05:51;;;;;;;;;73.50;59.25;;;;;3.90;100.00;102872.16;5099663;27;46465;-76
2023/02/14 04:08:23;;;;;;;;;79.50;63.00;;;;;3.87;100.00;102869.69;5099708;27;45368;-76
2023/02/14 04:10:50;;;;;;;;;83.00;62.25;;;;;3.84;100.00;102872.47;5098784;27;45397;-76
2023/02/14 04:13:16;;;;;;;;;74.50;60.50;;;;;3.77;100.00;102871.91;5089659;27;45468;-76
2023/02/14 04:15:41;;;;;;;;;72.50;60.50;;;;;3.74;100.00;102863.34;5100202;27;45331;-76
2023/02/14 04:20:53;;;;;;;;;77.75;58.75;;;;;3.70;100.00;102867.91;5100765;27;45227;-76
2023/02/14 04:23:22;;;;;;;;;78.00;62.25;;;;;3.71;100.00;102876.66;5089046;27;45333;-76
2023/02/14 04:25:47;;;;;;;;;75.25;60.50;;;;;3.70;100.00;102872.28;5098774;27;45375;-77
2023/02/14 04:28:13;;;;;;;;;70.25;56.25;;;;;3.70;100.00;102882.81;5100873;27;45404;-76
2023/02/14 04:30:38;;;;;;;;;71.50;57.50;;;;;3.66;100.00;102874.25;5100373;27;45277;-76
2023/02/14 04:33:04;;;;;;;;;72.50;59.50;;;;;3.67;100.00;102881.19;5100494;27;45302;-76
2023/02/14 04:35:30;;;;;;;;;73.50;59.00;;;;;3.63;100.00;102874.38;5087059;27;46357;-77
2023/02/14 04:37:55;;;;;;;;;76.75;61.00;;;;;3.83;100.00;102876.00;5099710;27;45848;-77
2023/02/14 04:40:20;;;;;;;;;76.75;60.25;;;;;3.60;100.00;102880.66;5099274;27;45337;-77
2023/02/14 04:42:46;;;;;;;;;78.50;62.00;;;;;3.57;100.00;102875.56;5099602;27;45326;-76
2023/02/14 04:45:12;;;;;;;;;82.75;64.50;;;;;3.55;100.00;102872.13;5099871;27;45723;-76
2023/02/14 04:47:38;;;;;;;;;76.00;59.75;;;;;3.54;100.00;102873.06;5095592;27;45365;-76
2023/02/14 04:50:04;;;;;;;;;74.50;60.25;;;;;3.53;100.00;102881.88;5097471;27;45507;-76
2023/02/14 04:52:29;;;;;;;;;78.00;60.25;;;;;3.57;100.00;102883.44;5100370;27;45301;-76
2023/02/14 04:54:54;;;;;;;;;72.00;59.75;;;;;3.52;100.00;102875.78;5098334;27;45954;-76
2023/02/14 04:57:27;;;;;;;;;80.50;62.50;;;;;3.54;100.00;102873.91;5088509;27;45317;-76
2023/02/14 04:59:52;;;;;;;;;72.75;58.75;;;;;3.56;100.00;102876.47;5098970;27;45387;-76
2023/02/14 05:02:21;;;;;;;;;75.75;58.50;;;;;3.58;100.00;102885.13;5100160;27;45305;-76
2023/02/14 05:04:46;;;;;;;;;78.50;62.00;;;;;3.52;100.00;102888.06;5099966;27;46016;-76
2023/02/14 05:07:11;;;;;;;;;71.75;59.50;;;;;3.50;100.00;102882.88;5099952;27;45522;-76
2023/02/14 05:09:39;;;;;;;;;78.25;62.25;;;;;3.56;100.00;102884.34;5085132;27;45344;-76
2023/02/14 05:12:04;;;;;;;;;72.50;58.50;;;;;3.53;100.00;102884.50;5100162;27;45328;-76
2023/02/14 05:14:30;;;;;;;;;81.25;61.00;;;;;3.56;100.00;102886.97;5099844;27;45487;-77
2023/02/14 05:16:55;;;;;;;;;78.25;62.50;;;;;3.54;100.00;102883.59;5099779;27;45235;-77
2023/02/14 05:19:24;;;;;;;;;86.00;69.00;;;;;3.53;100.00;102887.13;5099944;27;45297;-76
2023/02/14 05:21:49;;;;;;;;;86.50;69.50;;;;;3.44;100.00;102877.06;5099401;27;45552;-76
2023/02/14 05:24:15;;;;;;;;;84.00;66.00;;;;;3.48;100.00;102881.25;5098325;27;47415;-76
2023/02/14 05:26:43;;;;;;;;;87.50;66.00;;;;;3.47;100.00;102879.56;5099880;27;45767;-76
2023/02/14 05:29:08;;;;;;;;;81.00;65.00;;;;;3.41;100.00;102870.16;5099812;27;45341;-76
2023/02/14 05:31:36;;;;;;;;;82.75;65.25;;;;;3.43;100.00;102875.34;5085929;27;45157;-76
2023/02/14 05:34:01;;;;;;;;;87.75;68.25;;;;;3.40;100.00;102876.34;5099807;27;45492;-76
2023/02/14 05:36:30;;;;;;;;;77.25;60.75;;;;;3.40;100.00;102869.34;5099546;27;45302;-76
2023/02/14 05:38:57;;;;;;;;;81.75;66.25;;;;;3.39;100.00;102872.88;5097525;27;45561;-78
2023/02/14 05:41:27;;;;;;;;;88.25;67.75;;;;;3.40;100.00;102871.97;5097839;27;47035;-76
2023/02/14 05:43:55;;;;;;;;;80.75;63.75;;;;;3.36;100.00;102866.91;5098097;27;47385;-76
2023/02/14 05:46:20;;;;;;;;;83.75;66.00;;;;;3.35;100.00;102859.97;5099215;27;45441;-76
2023/02/14 05:48:46;;;;;;;;;80.50;65.00;;;;;3.37;100.00;102872.09;5099861;27;45614;-75
2023/02/14 05:51:11;;;;;;;;;86.50;67.50;;;;;3.35;100.00;102865.22;5098882;27;45475;-75
2023/02/14 05:53:37;;;;;;;;;91.00;68.00;;;;;3.35;100.00;102865.22;5093221;27;46132;-76
2023/02/14 05:56:05;;;;;;;;;87.50;69.25;;;;;3.34;100.00;102869.63;5097245;27;45321;-75
2023/02/14 05:58:36;;;;;;;;;79.50;64.00;;;;;3.30;100.00;102861.94;5103364;27;45349;-76
2023/02/14 06:01:12;;;;;;;;;86.75;71.00;;;;;3.23;100.00;102859.63;5102566;27;45345;-75
2023/02/14 06:03:38;;;;;;;;;87.50;71.75;;;;;3.21;100.00;102852.75;5103134;27;45412;-75
2023/02/14 06:06:03;;;;;;;;;88.25;69.75;;;;;3.18;100.00;102855.50;5104638;27;45345;-76
2023/02/14 06:08:29;;;;;;;;;88.50;70.00;;;;;3.18;100.00;102863.41;5113428;27;45409;-75
2023/02/14 06:11:25;;;;;;;;;84.50;68.25;;;;;3.18;100.00;102866.88;5101155;27;47811;-75
2023/02/14 06:14:30;;;;;;;;;84.00;66.00;;;;;3.17;100.00;102861.69;5099431;27;45562;-76
2023/02/14 06:17:45;;;;;;;;;83.25;66.25;;;;;3.14;100.00;102860.03;5074521;27;45567;-76
2023/02/14 06:24:01;;;;;;;;;87.00;65.75;;;;;3.00;100.00;102834.44;5012093;28;45569;-75
2023/02/14 06:26:27;;;;;;;;;78.75;63.75;;;;;3.03;100.00;102856.16;5096780;27;45397;-76
2023/02/14 06:28:55;;;;;;;;;80.50;63.50;;;;;3.00;100.00;102855.47;5099533;27;45376;-76
2023/02/14 06:31:20;;;;;;;;;79.75;65.25;;;;;3.03;100.00;102861.41;5100078;27;45271;-76
2023/02/14 06:33:46;;;;;;;;;78.50;60.50;;;;;3.02;100.00;102850.97;5082357;27;45589;-76
2023/02/14 06:36:11;;;;;;;;;79.25;59.75;;;;;3.05;100.00;102863.97;5101479;27;45296;-76
2023/02/14 06:38:36;;;;;;;;;82.75;64.75;;;;;3.06;100.00;102860.44;5091344;27;45874;-76
2023/02/14 06:41:07;;;;;;;;;81.25;63.00;;;;;3.09;100.00;102873.44;5101950;27;45350;-75
2023/02/14 06:43:33;;;;;;;;;83.75;65.75;;;;;3.07;100.00;102867.38;5100351;27;45569;-76
2023/02/14 06:45:58;;;;;;;;;81.75;64.75;;;;;3.08;100.00;102874.34;5096619;27;48357;-76
2023/02/14 06:48:24;;;;;;;;;77.00;62.25;;;;;3.10;100.00;102867.25;5100481;27;45331;-75
2023/02/14 06:50:49;;;;;;;;;79.25;63.25;;;;;3.07;100.00;102870.00;5101354;27;45326;-76
2023/02/14 06:53:14;;;;;;;;;80.25;63.25;;;;;3.03;100.00;102864.03;5102193;27;45472;-75
2023/02/14 06:55:40;;;;;;;;;82.00;64.00;;;;;2.97;100.00;102859.09;5101866;27;45381;-75
2023/02/14 06:58:05;;;;;;;;;78.75;61.25;;;;;3.00;100.00;102866.81;5099789;27;45413;-75
2023/02/14 07:00:30;;;;;;;;;78.75;61.25;;;;;3.00;100.00;102863.34;5097231;27;45189;-76
2023/02/14 07:02:56;;;;;;;;;75.25;57.50;;;;;2.99;100.00;102859.84;5100323;27;45374;-76
2023/02/14 07:05:21;;;;;;;;;79.75;63.75;;;;;2.95;100.00;102863.56;5101176;27;46125;-75
2023/02/14 07:07:47;;;;;;;;;82.50;62.00;;;;;2.97;100.00;102872.22;5114005;27;45250;-75
2023/02/14 07:10:13;;;;;;;;;81.25;64.25;;;;;2.94;100.00;102867.13;5101999;27;45325;-75
2023/02/14 07:12:38;;;;;;;;;77.00;61.75;;;;;2.95;100.00;102862.69;5101361;27;45371;-75
2023/02/14 07:15:08;;;;;;;;;80.25;64.75;;;;;2.93;100.00;102860.13;5100663;27;47239;-76
2023/02/14 07:17:34;;;;;;;;;81.50;63.75;;;;;2.93;100.00;102864.56;5099831;27;46238;-76
2023/02/14 07:20:00;;;;;;;;;82.25;64.00;;;;;2.91;100.00;102864.63;5102070;27;45265;-76
2023/02/14 07:22:25;;;;;;;;;75.75;61.50;;;;;2.88;100.00;102870.84;5102002;27;45315;-76
2023/02/14 07:24:51;;;;;;;;;82.50;66.00;;;;;2.90;100.00;102863.75;5099980;27;47263;-74
2023/02/14 07:27:16;;;;;;;;;81.25;63.25;;;;;2.94;100.00;102867.13;5101583;27;45390;-75
2023/02/14 07:29:41;;;;;;;;;76.50;60.75;;;;;3.03;100.00;102866.66;5099181;27;45321;-76
2023/02/14 07:32:07;;;;;;;;;77.75;62.00;;;;;3.01;100.00;102873.78;5087180;27;45226;-76
2023/02/14 07:34:32;;;;;;;;;85.00;67.00;;;;;3.00;100.00;102873.84;5101491;27;45997;-76
2023/02/14 07:36:57;;;;;;;;;79.25;64.25;;;;;3.03;100.00;102873.72;5089304;27;45221;-76
2023/02/14 07:39:23;;;;;;;;;79.75;64.00;;;;;3.02;100.00;102880.72;5081116;27;45630;-76
2023/02/14 07:41:48;;;;;;;;;87.25;68.75;;;;;3.04;100.00;102878.03;5096101;27;47379;-77
2023/02/14 07:44:13;;;;;;;;;95.33;82.67;;;;;3.07;100.00;102883.16;5081935;27;45463;-76
2023/02/14 07:46:39;;;;;;;;;108.67;99.67;;;;;3.25;100.00;102883.19;5100889;27;45466;-76
2023/02/14 07:49:04;;;;;;;;;94.67;82.00;;;;;3.21;100.00;102879.03;5097140;27;45291;-76
2023/02/14 07:51:30;;;;;;;;;93.00;77.00;;;;;3.13;100.00;102882.88;5089505;27;47190;-75
2023/02/14 07:53:55;;;;;;;;;88.25;68.00;;;;;3.17;100.00;102890.59;5099475;27;47271;-75
2023/02/14 07:56:21;;;;;;;;;90.25;69.50;;;;;3.18;100.00;102889.69;5099932;27;45890;-76
2023/02/14 07:58:48;;;;;;;;;91.75;73.75;;;;;3.24;100.00;102894.66;5100966;27;45402;-75
2023/02/14 08:01:14;;;;;;;;;93.25;75.00;;;;;3.30;100.00;102897.00;5100947;27;45271;-76
2023/02/14 08:03:40;;;;;;;;;92.25;76.00;;;;;3.33;100.00;102893.34;5099257;27;46009;-76
2023/02/14 08:06:05;;;;;;;;;89.00;72.00;;;;;3.38;100.00;102896.63;5104536;27;45376;-75
2023/02/14 08:08:31;;;;;;;;;86.25;68.75;;;;;3.40;100.00;102895.63;5104286;27;45262;-76
2023/02/14 08:10:57;;;;;;;;;88.00;69.75;;;;;3.46;100.00;102901.50;5099367;27;45804;-75
2023/02/14 08:13:22;;;;;;;;;86.50;67.75;;;;;3.50;100.00;102897.81;5100596;27;45145;-75
2023/02/14 08:16:03;;;;;;;;;85.75;69.00;;;;;3.55;100.00;102901.06;5099014;27;45472;-75
2023/02/14 08:18:29;;;;;;;;;90.50;68.50;;;;;3.59;100.00;102899.97;5083437;27;45206;-76
2023/02/14 08:20:55;;;;;;;;;84.75;66.00;;;;;3.65;100.00;102893.56;5098621;27;45345;-76
2023/02/14 08:23:20;;;;;;;;;90.75;71.25;;;;;3.71;100.00;102892.44;5100423;27;45297;-76
2023/02/14 08:25:50;;;;;;;;;85.25;68.50;;;;;3.74;100.00;102890.47;5095588;27;45320;-76
2023/02/14 08:28:16;;;;;;;;;81.50;65.75;;;;;3.73;100.00;102883.53;5095384;27;45388;-75
2023/02/14 08:30:42;;;;;;;;;84.75;66.00;;;;;3.78;100.00;102888.56;5100527;27;45508;-75
2023/02/14 08:33:08;;;;;;;;;86.50;66.25;;;;;3.77;100.00;102879.81;5100323;27;46425;-75
2023/02/14 08:35:34;;;;;;;;;89.00;72.50;;;;;3.84;100.00;102883.00;5098952;27;45250;-75
2023/02/14 08:38:00;;;;;;;;;82.75;64.50;;;;;3.88;100.00;102879.28;5098483;27;45488;-77
2023/02/14 08:40:26;;;;;;;;;87.75;70.25;;;;;3.91;100.00;102873.88;5084577;27;45448;-77
2023/02/14 08:42:51;;;;;;;;;82.75;65.00;;;;;3.95;100.00;102878.97;5098697;27;47172;-76
2023/02/14 08:45:16;;;;;;;;;82.75;66.00;;;;;4.00;100.00;102879.56;5100207;27;45153;-76
2023/02/14 08:47:42;;;;;;;;;89.50;69.75;;;;;4.04;100.00;102874.09;5101713;27;45536;-76
2023/02/14 08:50:10;;;;;;;;;246.25;230.00;;;;;4.08;100.00;102872.16;5101875;27;45428;-76
2023/02/14 08:52:38;;;;;;;;;101.00;92.67;;;;;4.14;100.00;102866.59;5086734;27;47369;-76
2023/02/14 08:55:04;;;;;;;;;89.50;76.50;;;;;4.18;100.00;102869.88;5100620;27;45345;-76
2023/02/14 08:57:29;;;;;;;;;86.00;67.75;;;;;4.24;100.00;102869.59;5099482;27;45357;-76
2023/02/14 08:59:55;;;;;;;;;85.50;68.25;;;;;4.27;100.00;102864.16;5099660;27;45421;-76
2023/02/14 09:02:20;;;;;;;;;88.25;68.25;;;;;4.34;100.00;102864.66;5099936;27;45310;-76
2023/02/14 09:04:45;;;;;;;;;88.75;70.75;;;;;4.41;100.00;102866.06;5092183;27;45691;-77
2023/02/14 09:07:11;;;;;;;;;84.75;69.00;;;;;4.47;100.00;102867.53;5101602;27;45261;-76
2023/02/14 09:09:37;;;;;;;;;87.25;70.00;;;;;4.50;100.00;102871.78;5089805;27;45514;-76
2023/02/14 09:12:04;;;;;;;;;94.50;76.75;;;;;4.58;100.00;102864.31;5093842;27;48327;-77
2023/02/14 09:14:35;;;;;;;;;91.50;74.25;;;;;4.66;100.00;102872.66;5093959;27;45444;-76
2023/02/14 09:17:04;;;;;;;;;89.25;73.25;;;;;4.74;100.00;102879.28;5089028;27;45395;-77
2023/02/14 09:19:29;;;;;;;;;82.25;65.75;;;;;4.77;100.00;102869.47;5093746;27;45530;-76
2023/02/14 09:21:55;;;;;;;;;88.50;67.00;;;;;4.84;100.00;102877.88;5097161;27;45345;-76
2023/02/14 09:24:21;;;;;;;;;87.25;73.00;;;;;4.91;100.00;102875.75;5091276;27;45452;-76
2023/02/14 09:26:46;;;;;;;;;91.50;77.25;;;;;5.01;100.00;102882.22;5094481;27;45297;-76
2023/02/14 09:29:12;;;;;;;;;90.75;77.50;;;;;5.04;100.00;102871.50;5089912;27;45337;-76
2023/02/14 09:31:37;;;;;;;;;92.00;78.25;;;;;5.15;100.00;102881.44;5090172;27;45465;-76
2023/02/14 09:34:02;;;;;;;;;95.50;83.25;;;;;5.26;100.00;102879.97;5096863;27;45351;-76
2023/02/14 09:39:12;;;;;;;;;91.25;76.25;;;;;5.39;100.00;102877.53;5095526;27;45331;-76
2023/02/14 09:41:56;;;;;;;;;92.75;80.75;;;;;5.49;100.00;102878.69;5096063;27;45424;-76
2023/02/14 09:44:50;;;;;;;;;93.50;80.25;;;;;5.53;100.00;102871.44;5089948;27;45314;-76
2023/02/14 09:47:34;;;;;;;;;93.50;77.25;;;;;5.69;100.00;102871.44;5093087;27;45335;-76
2023/02/14 09:50:02;;;;;;;;;90.25;80.25;;;;;5.77;100.00;102868.31;5095909;27;47048;-76
2023/02/14 09:52:29;;;;;;;;;94.00;82.50;;;;;5.84;100.00;102866.19;5097675;27;48496;-76
2023/02/14 09:55:00;;;;;;;;;85.00;72.25;;;;;5.93;100.00;102863.84;5096230;27;45908;-77
2023/02/14 09:57:52;;;;;;;;;91.50;81.50;;;;;6.05;100.00;102866.75;5115367;27;45380;-76
2023/02/14 10:00:18;;;;;;;;;87.50;75.00;;;;;6.14;100.00;102860.06;5086328;27;45386;-76
2023/02/14 10:03:07;;;;;;;;;88.50;74.50;;;;;6.24;100.00;102852.41;5090747;27;45320;-76
2023/02/14 10:05:56;;;;;;;;;85.00;71.00;;;;;6.31;100.00;102845.81;5099154;27;45506;-76
2023/02/14 10:08:40;;;;;;;;;82.75;66.50;;;;;6.45;100.00;102844.97;5090759;27;45418;-75
2023/02/14 10:11:13;;;;;;;;;87.50;70.50;;;;;6.54;100.00;102832.97;5086587;27;45148;-75
2023/02/14 10:13:45;;;;;;;;;101.25;89.50;;;;;6.67;100.00;102836.53;5098860;27;45458;-76
2023/02/14 10:16:19;;;;;;;;;117.00;108.33;;;;;6.80;100.00;102830.50;5099065;27;45452;-76
2023/02/14 10:18:53;;;;;;;;;116.00;102.50;;;;;6.86;100.00;102832.75;5085250;27;45333;-75
2023/02/14 10:21:35;;;;;;;;;94.50;86.75;;;;;6.96;100.00;102827.72;5099203;27;45488;-75
2023/02/14 10:24:15;;;;;;;;;104.25;91.00;;;;;7.10;100.00;102833.91;5099189;27;45306;-75
2023/02/14 10:26:40;;;;;;;;;97.00;87.75;;;;;7.22;100.00;102826.97;5098848;27;45488;-75
2023/02/14 10:29:14;;;;;;;;;100.25;90.00;;;;;7.31;100.00;102831.66;5099114;27;45441;-75
2023/02/14 10:32:01;;;;;;;;;92.75;82.00;;;;;7.40;100.00;102830.19;5098194;27;46095;-75
2023/02/14 10:34:42;;;;;;;;;90.00;77.25;;;;;7.46;100.00;102829.78;5098886;27;45373;-75
2023/02/14 10:37:36;;;;;;;;;93.25;81.75;;;;;7.58;100.00;102831.59;5097528;27;45455;-75
2023/02/14 10:40:30;;;;;;;;;86.75;74.50;;;;;7.68;100.00;102834.50;5094032;27;45266;-75
2023/02/14 10:43:17;;;;;;;;;90.00;79.00;;;;;7.80;100.00;102832.81;5095453;27;45342;-76
2023/02/14 10:46:01;;;;;;;;;87.75;74.50;;;;;7.91;100.00;102836.53;5095599;27;45412;-76
2023/02/14 10:48:38;;;;;;;;;92.25;83.25;;;;;8.00;100.00;102827.09;5102605;27;45219;-76
2023/02/14 10:51:34;;;;;;;;;88.25;75.75;;;;;8.11;100.00;102813.97;5097286;27;45317;-76
2023/02/14 10:54:20;;;;;;;;;89.50;79.75;;;;;8.26;100.00;102819.16;5097031;27;45595;-76
2023/02/14 10:56:54;;;;;;;;;86.75;73.75;;;;;8.37;100.00;102819.25;5102127;27;45493;-75
2023/02/14 10:59:26;;;;;;;;;89.75;79.00;;;;;8.45;100.00;102805.44;5097059;27;45457;-76
2023/02/14 11:01:53;;;;;;;;;88.75;76.75;;;;;8.60;100.00;102808.84;5089810;27;45424;-76
2023/02/14 11:04:22;;;;;;;;;88.00;81.00;;;;;8.70;100.00;102799.25;5101298;27;45357;-76
2023/02/14 11:06:49;;;;;;;;;94.00;85.25;;;;;8.81;100.00;102806.44;5107923;27;45401;-76
2023/02/14 11:09:15;;;;;;;;;88.25;81.25;;;;;8.93;100.00;102804.72;5101711;27;45505;-75
2023/02/14 11:11:49;;;;;;;;;90.75;81.00;;;;;9.07;100.00;102800.19;5101810;27;45331;-75
2023/02/14 11:14:22;;;;;;;;;91.25;81.25;;;;;9.24;100.00;102803.38;5100325;27;47440;-74
2023/02/14 11:16:50;;;;;;;;;89.50;76.25;;;;;9.32;100.00;102795.69;5101375;27;46145;-74
2023/02/14 11:19:18;;;;;;;;;85.00;76.75;;;;;9.41;100.00;102791.50;5101579;27;45328;-75
2023/02/14 11:21:46;;;;;;;;;83.00;70.25;;;;;9.52;100.00;102788.88;5101549;27;45356;-75
2023/02/14 11:24:23;;;;;;;;;87.00;78.75;;;;;9.63;100.00;102790.72;5101703;27;45311;-74
2023/02/14 11:26:51;;;;;;;;;83.75;74.25;;;;;9.79;100.00;102784.22;5100191;27;47156;-76
2023/02/14 11:29:27;;;;;;;;;89.50;79.25;;;;;9.89;100.00;102773.72;5100044;27;45239;-76
2023/02/14 11:31:53;;;;;;;;;87.00;80.50;;;;;9.96;100.00;102777.59;5089576;27;45456;-76
2023/02/14 11:34:36;;;;;;;;;86.50;78.00;;;;;10.06;100.00;102767.09;5101399;27;45418;-75
2023/02/14 11:37:13;;;;;;;;;89.25;82.50;;;;;10.20;100.00;102764.19;5101180;27;46602;-76
2023/02/14 11:39:39;;;;;;;;;87.50;79.00;;;;;10.38;100.00;102761.03;5100085;27;46097;-75
2023/02/14 11:42:04;;;;;;;;;84.00;77.25;;;;;10.53;100.00;102760.81;5101408;27;45281;-76
2023/02/14 11:44:35;;;;;;;;;87.00;78.75;;;;;10.67;100.00;102754.34;5096563;27;46047;-76
2023/02/14 11:47:18;;;;;;;;;82.50;73.75;;;;;10.75;100.00;102756.38;5099640;27;47204;-76
2023/02/14 11:49:54;;;;;;;;;84.25;75.00;;;;;10.86;100.00;102743.91;5101030;27;45338;-76
2023/02/14 11:52:25;;;;;;;;;81.25;70.25;;;;;11.01;100.00;102738.25;5093063;27;45448;-75